sensor_id;sensor_type;location;lat;lon;timestamp;P1;durP1;ratioP1;P2;durP2;ratioP2
3949;SDS011;53057;50.988;6.314;2023-03-12T00:01:14;22.63;;;11.90;;
3949;SDS011;53057;50.988;6.314;2023-03-12T00:03:41;20.33;;;8.70;;
3949;SDS011;53057;50.988;6.314;2023-03-12T00:06:08;12.77;;;7.97;;
3949;SDS011;53057;50.988;6.314;2023-03-12T00:08:36;9.40;;;5.10;;
3949;SDS011;53057;50.988;6.314;2023-03-12T00:11:07;18.53;;;12.27;;
3949;SDS011;53057;50.988;6.314;2023-03-12T00:13:34;53.07;;;30.97;;
3949;SDS011;53057;50.988;6.314;2023-03-12T00:16:05;34.40;;;19.60;;
3949;SDS011;53057;50.988;6.314;2023-03-12T00:18:32;6.70;;;4.90;;
3949;SDS011;53057;50.988;6.314;2023-03-12T00:20:59;9.53;;;4.33;;
3949;SDS011;53057;50.988;6.314;2023-03-12T00:23:25;6.83;;;4.60;;
3949;SDS011;53057;50.988;6.314;2023-03-12T00:25:52;6.83;;;4.40;;
3949;SDS011;53057;50.988;6.314;2023-03-12T00:28:18;8.33;;;4.67;;
3949;SDS011;53057;50.988;6.314;2023-03-12T00:30:45;11.87;;;4.33;;
3949;SDS011;53057;50.988;6.314;2023-03-12T00:33:12;11.10;;;4.90;;
3949;SDS011;53057;50.988;6.314;2023-03-12T00:35:39;4.90;;;4.30;;
3949;SDS011;53057;50.988;6.314;2023-03-12T00:38:05;9.83;;;4.47;;
3949;SDS011;53057;50.988;6.314;2023-03-12T00:40:32;5.30;;;3.87;;
3949;SDS011;53057;50.988;6.314;2023-03-12T00:42:59;9.37;;;4.97;;
3949;SDS011;53057;50.988;6.314;2023-03-12T00:45:26;8.93;;;4.97;;
3949;SDS011;53057;50.988;6.314;2023-03-12T00:47:52;13.83;;;4.93;;
3949;SDS011;53057;50.988;6.314;2023-03-12T00:50:19;22.93;;;5.07;;
3949;SDS011;53057;50.988;6.314;2023-03-12T00:52:46;12.33;;;4.50;;
3949;SDS011;53057;50.988;6.314;2023-03-12T00:55:12;10.33;;;5.03;;
3949;SDS011;53057;50.988;6.314;2023-03-12T00:57:39;7.33;;;4.80;;
3949;SDS011;53057;50.988;6.314;2023-03-12T01:00:06;12.53;;;4.63;;
3949;SDS011;53057;50.988;6.314;2023-03-12T01:02:36;12.60;;;4.70;;
3949;SDS011;53057;50.988;6.314;2023-03-12T01:05:04;6.90;;;4.13;;
3949;SDS011;53057;50.988;6.314;2023-03-12T01:07:31;9.53;;;5.30;;
3949;SDS011;53057;50.988;6.314;2023-03-12T01:09:58;5.83;;;3.80;;
3949;SDS011;53057;50.988;6.314;2023-03-12T01:12:24;7.13;;;4.00;;
3949;SDS011;53057;50.988;6.314;2023-03-12T01:14:51;9.40;;;4.07;;
3949;SDS011;53057;50.988;6.314;2023-03-12T01:17:17;7.00;;;3.83;;
3949;SDS011;53057;50.988;6.314;2023-03-12T01:19:44;11.40;;;4.97;;
3949;SDS011;53057;50.988;6.314;2023-03-12T01:22:11;9.73;;;4.70;;
3949;SDS011;53057;50.988;6.314;2023-03-12T01:24:38;9.17;;;4.83;;
3949;SDS011;53057;50.988;6.314;2023-03-12T01:27:04;16.50;;;4.83;;
3949;SDS011;53057;50.988;6.314;2023-03-12T01:29:31;5.80;;;4.33;;
3949;SDS011;53057;50.988;6.314;2023-03-12T01:31:58;7.60;;;4.50;;
3949;SDS011;53057;50.988;6.314;2023-03-12T01:34:24;9.60;;;4.77;;
3949;SDS011;53057;50.988;6.314;2023-03-12T01:36:51;8.27;;;4.63;;
3949;SDS011;53057;50.988;6.314;2023-03-12T01:39:17;13.37;;;5.53;;
3949;SDS011;53057;50.988;6.314;2023-03-12T01:41:44;13.70;;;4.67;;
3949;SDS011;53057;50.988;6.314;2023-03-12T01:44:14;11.03;;;5.40;;
3949;SDS011;53057;50.988;6.314;2023-03-12T01:46:41;15.03;;;4.80;;
3949;SDS011;53057;50.988;6.314;2023-03-12T01:49:16;10.23;;;5.60;;
3949;SDS011;53057;50.988;6.314;2023-03-12T01:51:46;4.87;;;3.27;;
3949;SDS011;53057;50.988;6.314;2023-03-12T01:54:16;9.80;;;3.83;;
3949;SDS011;53057;50.988;6.314;2023-03-12T01:56:43;14.00;;;6.63;;
3949;SDS011;53057;50.988;6.314;2023-03-12T01:59:13;9.80;;;5.70;;
3949;SDS011;53057;50.988;6.314;2023-03-12T02:01:41;15.80;;;6.93;;
3949;SDS011;53057;50.988;6.314;2023-03-12T02:04:08;74.10;;;52.63;;
3949;SDS011;53057;50.988;6.314;2023-03-12T02:06:41;15.63;;;6.20;;
3949;SDS011;53057;50.988;6.314;2023-03-12T02:09:09;10.50;;;4.60;;
3949;SDS011;53057;50.988;6.314;2023-03-12T02:11:37;11.90;;;4.77;;
3949;SDS011;53057;50.988;6.314;2023-03-12T02:14:04;11.00;;;5.10;;
3949;SDS011;53057;50.988;6.314;2023-03-12T02:16:31;14.13;;;4.03;;
3949;SDS011;53057;50.988;6.314;2023-03-12T02:18:58;9.03;;;3.40;;
3949;SDS011;53057;50.988;6.314;2023-03-12T02:21:27;9.13;;;4.50;;
3949;SDS011;53057;50.988;6.314;2023-03-12T02:23:56;8.70;;;4.70;;
3949;SDS011;53057;50.988;6.314;2023-03-12T02:26:28;28.60;;;5.33;;
3949;SDS011;53057;50.988;6.314;2023-03-12T02:28:56;15.43;;;5.97;;
3949;SDS011;53057;50.988;6.314;2023-03-12T02:31:25;6.23;;;4.40;;
3949;SDS011;53057;50.988;6.314;2023-03-12T02:33:54;19.47;;;7.30;;
3949;SDS011;53057;50.988;6.314;2023-03-12T02:36:21;11.00;;;5.03;;
3949;SDS011;53057;50.988;6.314;2023-03-12T02:38:49;15.13;;;6.40;;
3949;SDS011;53057;50.988;6.314;2023-03-12T02:41:20;14.33;;;5.60;;
3949;SDS011;53057;50.988;6.314;2023-03-12T02:43:58;10.90;;;4.80;;
3949;SDS011;53057;50.988;6.314;2023-03-12T02:46:26;11.80;;;5.50;;
3949;SDS011;53057;50.988;6.314;2023-03-12T02:48:52;15.20;;;5.22;;
3949;SDS011;53057;50.988;6.314;2023-03-12T02:51:20;27.42;;;5.82;;
3949;SDS011;53057;50.988;6.314;2023-03-12T02:53:47;14.40;;;6.47;;
3949;SDS011;53057;50.988;6.314;2023-03-12T02:56:21;13.73;;;5.95;;
3949;SDS011;53057;50.988;6.314;2023-03-12T02:58:48;10.80;;;5.50;;
3949;SDS011;53057;50.988;6.314;2023-03-12T03:01:15;13.68;;;5.35;;
3949;SDS011;53057;50.988;6.314;2023-03-12T03:03:42;8.05;;;4.65;;
3949;SDS011;53057;50.988;6.314;2023-03-12T03:06:09;5.90;;;4.22;;
3949;SDS011;53057;50.988;6.314;2023-03-12T03:08:35;6.17;;;4.37;;
3949;SDS011;53057;50.988;6.314;2023-03-12T03:11:02;5.53;;;4.95;;
3949;SDS011;53057;50.988;6.314;2023-03-12T03:13:29;8.90;;;6.70;;
3949;SDS011;53057;50.988;6.314;2023-03-12T03:15:56;8.85;;;7.45;;
3949;SDS011;53057;50.988;6.314;2023-03-12T03:18:25;10.80;;;5.30;;
3949;SDS011;53057;50.988;6.314;2023-03-12T03:20:58;10.20;;;5.45;;
3949;SDS011;53057;50.988;6.314;2023-03-12T03:23:26;9.07;;;5.55;;
3949;SDS011;53057;50.988;6.314;2023-03-12T03:25:54;18.33;;;5.75;;
3949;SDS011;53057;50.988;6.314;2023-03-12T03:28:22;6.95;;;5.32;;
3949;SDS011;53057;50.988;6.314;2023-03-12T03:30:51;7.78;;;5.25;;
3949;SDS011;53057;50.988;6.314;2023-03-12T03:33:18;10.30;;;4.47;;
3949;SDS011;53057;50.988;6.314;2023-03-12T03:35:44;7.00;;;5.17;;
3949;SDS011;53057;50.988;6.314;2023-03-12T03:38:11;9.17;;;5.37;;
3949;SDS011;53057;50.988;6.314;2023-03-12T03:40:38;11.53;;;4.90;;
3949;SDS011;53057;50.988;6.314;2023-03-12T03:43:04;10.25;;;4.47;;
3949;SDS011;53057;50.988;6.314;2023-03-12T03:45:31;6.47;;;3.60;;
3949;SDS011;53057;50.988;6.314;2023-03-12T03:47:58;11.73;;;3.93;;
3949;SDS011;53057;50.988;6.314;2023-03-12T03:50:25;8.83;;;3.37;;
3949;SDS011;53057;50.988;6.314;2023-03-12T03:52:51;6.47;;;4.00;;
3949;SDS011;53057;50.988;6.314;2023-03-12T03:55:18;10.20;;;3.63;;
3949;SDS011;53057;50.988;6.314;2023-03-12T03:57:45;15.97;;;4.87;;
3949;SDS011;53057;50.988;6.314;2023-03-12T04:00:11;13.35;;;3.17;;
3949;SDS011;53057;50.988;6.314;2023-03-12T04:02:43;7.83;;;4.63;;
3949;SDS011;53057;50.988;6.314;2023-03-12T04:05:11;12.40;;;3.33;;
3949;SDS011;53057;50.988;6.314;2023-03-12T04:07:38;5.60;;;3.60;;
3949;SDS011;53057;50.988;6.314;2023-03-12T04:10:05;10.50;;;4.13;;
3949;SDS011;53057;50.988;6.314;2023-03-12T04:12:32;9.57;;;3.70;;
3949;SDS011;53057;50.988;6.314;2023-03-12T04:14:59;7.43;;;4.03;;
3949;SDS011;53057;50.988;6.314;2023-03-12T04:17:25;6.07;;;3.63;;
3949;SDS011;53057;50.988;6.314;2023-03-12T04:19:52;11.10;;;3.43;;
3949;SDS011;53057;50.988;6.314;2023-03-12T04:22:19;8.37;;;4.30;;
3949;SDS011;53057;50.988;6.314;2023-03-12T04:24:45;5.30;;;3.20;;
3949;SDS011;53057;50.988;6.314;2023-03-12T04:27:12;7.23;;;2.80;;
3949;SDS011;53057;50.988;6.314;2023-03-12T04:29:39;3.77;;;2.70;;
3949;SDS011;53057;50.988;6.314;2023-03-12T04:32:08;12.70;;;4.20;;
3949;SDS011;53057;50.988;6.314;2023-03-12T04:34:35;8.53;;;3.30;;
3949;SDS011;53057;50.988;6.314;2023-03-12T04:37:02;15.27;;;4.20;;
3949;SDS011;53057;50.988;6.314;2023-03-12T04:39:29;4.03;;;3.30;;
3949;SDS011;53057;50.988;6.314;2023-03-12T04:41:55;6.20;;;3.07;;
3949;SDS011;53057;50.988;6.314;2023-03-12T04:44:24;5.13;;;3.25;;
3949;SDS011;53057;50.988;6.314;2023-03-12T04:46:51;10.13;;;3.10;;
3949;SDS011;53057;50.988;6.314;2023-03-12T04:49:21;4.40;;;2.47;;
3949;SDS011;53057;50.988;6.314;2023-03-12T04:51:47;3.23;;;2.50;;
3949;SDS011;53057;50.988;6.314;2023-03-12T04:54:14;1.47;;;1.40;;
3949;SDS011;53057;50.988;6.314;2023-03-12T04:56:41;6.33;;;1.27;;
3949;SDS011;53057;50.988;6.314;2023-03-12T04:59:08;3.33;;;2.70;;
3949;SDS011;53057;50.988;6.314;2023-03-12T05:01:35;18.30;;;3.30;;
3949;SDS011;53057;50.988;6.314;2023-03-12T05:04:06;4.23;;;2.60;;
3949;SDS011;53057;50.988;6.314;2023-03-12T05:06:33;8.33;;;2.27;;
3949;SDS011;53057;50.988;6.314;2023-03-12T05:09:00;8.20;;;3.33;;
3949;SDS011;53057;50.988;6.314;2023-03-12T05:11:27;5.80;;;2.80;;
3949;SDS011;53057;50.988;6.314;2023-03-12T05:13:54;14.53;;;3.77;;
3949;SDS011;53057;50.988;6.314;2023-03-12T05:16:21;7.27;;;3.10;;
3949;SDS011;53057;50.988;6.314;2023-03-12T05:18:48;6.00;;;3.60;;
3949;SDS011;53057;50.988;6.314;2023-03-12T05:21:16;8.83;;;3.70;;
3949;SDS011;53057;50.988;6.314;2023-03-12T05:23:45;6.95;;;3.95;;
3949;SDS011;53057;50.988;6.314;2023-03-12T05:26:20;13.50;;;4.18;;
3949;SDS011;53057;50.988;6.314;2023-03-12T05:28:47;7.15;;;4.07;;
3949;SDS011;53057;50.988;6.314;2023-03-12T05:31:15;7.57;;;2.77;;
3949;SDS011;53057;50.988;6.314;2023-03-12T05:33:43;10.40;;;2.70;;
3949;SDS011;53057;50.988;6.314;2023-03-12T05:36:10;3.27;;;2.93;;
3949;SDS011;53057;50.988;6.314;2023-03-12T05:38:37;5.83;;;3.23;;
3949;SDS011;53057;50.988;6.314;2023-03-12T05:41:05;17.27;;;3.50;;
3949;SDS011;53057;50.988;6.314;2023-03-12T05:43:34;11.50;;;3.40;;
3949;SDS011;53057;50.988;6.314;2023-03-12T05:46:02;7.73;;;3.90;;
3949;SDS011;53057;50.988;6.314;2023-03-12T05:48:30;9.17;;;2.90;;
3949;SDS011;53057;50.988;6.314;2023-03-12T05:50:57;5.47;;;2.33;;
3949;SDS011;53057;50.988;6.314;2023-03-12T05:53:23;6.03;;;3.43;;
3949;SDS011;53057;50.988;6.314;2023-03-12T05:55:51;3.50;;;2.90;;
3949;SDS011;53057;50.988;6.314;2023-03-12T05:58:18;6.13;;;3.42;;
3949;SDS011;53057;50.988;6.314;2023-03-12T06:00:44;3.73;;;3.17;;
3949;SDS011;53057;50.988;6.314;2023-03-12T06:03:12;4.95;;;2.25;;
3949;SDS011;53057;50.988;6.314;2023-03-12T06:05:40;3.97;;;3.00;;
3949;SDS011;53057;50.988;6.314;2023-03-12T06:08:06;14.23;;;2.60;;
3949;SDS011;53057;50.988;6.314;2023-03-12T06:10:33;9.63;;;3.40;;
3949;SDS011;53057;50.988;6.314;2023-03-12T06:13:00;6.73;;;2.93;;
3949;SDS011;53057;50.988;6.314;2023-03-12T06:15:26;5.45;;;2.30;;
3949;SDS011;53057;50.988;6.314;2023-03-12T06:17:53;7.73;;;3.37;;
3949;SDS011;53057;50.988;6.314;2023-03-12T06:20:21;14.40;;;3.70;;
3949;SDS011;53057;50.988;6.314;2023-03-12T06:22:48;7.40;;;3.53;;
3949;SDS011;53057;50.988;6.314;2023-03-12T06:25:15;7.63;;;3.80;;
3949;SDS011;53057;50.988;6.314;2023-03-12T06:27:42;7.53;;;3.03;;
3949;SDS011;53057;50.988;6.314;2023-03-12T06:30:08;4.30;;;2.93;;
3949;SDS011;53057;50.988;6.314;2023-03-12T06:32:35;5.10;;;2.67;;
3949;SDS011;53057;50.988;6.314;2023-03-12T06:35:02;10.87;;;3.80;;
3949;SDS011;53057;50.988;6.314;2023-03-12T06:37:30;6.90;;;3.23;;
3949;SDS011;53057;50.988;6.314;2023-03-12T06:39:56;14.20;;;4.63;;
3949;SDS011;53057;50.988;6.314;2023-03-12T06:42:23;7.57;;;3.73;;
3949;SDS011;53057;50.988;6.314;2023-03-12T06:44:51;5.87;;;3.50;;
3949;SDS011;53057;50.988;6.314;2023-03-12T06:47:19;8.90;;;3.23;;
3949;SDS011;53057;50.988;6.314;2023-03-12T06:49:45;20.43;;;6.67;;
3949;SDS011;53057;50.988;6.314;2023-03-12T06:52:12;4.60;;;3.50;;
3949;SDS011;53057;50.988;6.314;2023-03-12T06:54:39;9.10;;;3.80;;
3949;SDS011;53057;50.988;6.314;2023-03-12T06:57:05;6.80;;;4.27;;
3949;SDS011;53057;50.988;6.314;2023-03-12T06:59:32;7.30;;;4.33;;
3949;SDS011;53057;50.988;6.314;2023-03-12T07:01:58;8.03;;;4.80;;
3949;SDS011;53057;50.988;6.314;2023-03-12T07:04:25;9.57;;;5.13;;
3949;SDS011;53057;50.988;6.314;2023-03-12T07:06:51;8.57;;;4.90;;
3949;SDS011;53057;50.988;6.314;2023-03-12T07:09:18;7.67;;;5.47;;
3949;SDS011;53057;50.988;6.314;2023-03-12T07:11:45;5.50;;;4.00;;
3949;SDS011;53057;50.988;6.314;2023-03-12T07:14:12;12.10;;;5.00;;
3949;SDS011;53057;50.988;6.314;2023-03-12T07:16:38;17.93;;;5.90;;
3949;SDS011;53057;50.988;6.314;2023-03-12T07:19:05;9.07;;;5.03;;
3949;SDS011;53057;50.988;6.314;2023-03-12T07:21:31;16.33;;;4.90;;
3949;SDS011;53057;50.988;6.314;2023-03-12T07:23:58;10.03;;;4.57;;
3949;SDS011;53057;50.988;6.314;2023-03-12T07:26:26;10.87;;;4.90;;
3949;SDS011;53057;50.988;6.314;2023-03-12T07:28:53;7.40;;;4.27;;
3949;SDS011;53057;50.988;6.314;2023-03-12T07:31:19;7.40;;;5.83;;
3949;SDS011;53057;50.988;6.314;2023-03-12T07:33:46;8.13;;;5.13;;
3949;SDS011;53057;50.988;6.314;2023-03-12T07:36:13;6.80;;;5.37;;
3949;SDS011;53057;50.988;6.314;2023-03-12T07:38:39;9.27;;;5.63;;
3949;SDS011;53057;50.988;6.314;2023-03-12T07:41:06;12.77;;;8.40;;
3949;SDS011;53057;50.988;6.314;2023-03-12T07:43:32;13.53;;;7.70;;
3949;SDS011;53057;50.988;6.314;2023-03-12T07:45:59;18.83;;;6.73;;
3949;SDS011;53057;50.988;6.314;2023-03-12T07:48:26;18.73;;;7.73;;
3949;SDS011;53057;50.988;6.314;2023-03-12T07:50:52;11.90;;;7.43;;
3949;SDS011;53057;50.988;6.314;2023-03-12T07:53:19;29.97;;;16.30;;
3949;SDS011;53057;50.988;6.314;2023-03-12T07:55:46;20.33;;;14.63;;
3949;SDS011;53057;50.988;6.314;2023-03-12T07:58:14;23.90;;;13.53;;
3949;SDS011;53057;50.988;6.314;2023-03-12T08:00:41;20.77;;;12.33;;
3949;SDS011;53057;50.988;6.314;2023-03-12T08:03:08;30.33;;;20.03;;
3949;SDS011;53057;50.988;6.314;2023-03-12T08:05:35;29.83;;;20.83;;
3949;SDS011;53057;50.988;6.314;2023-03-12T08:08:02;15.13;;;7.17;;
3949;SDS011;53057;50.988;6.314;2023-03-12T08:10:29;10.83;;;6.87;;
3949;SDS011;53057;50.988;6.314;2023-03-12T08:12:56;14.83;;;9.77;;
3949;SDS011;53057;50.988;6.314;2023-03-12T08:15:22;18.00;;;11.83;;
3949;SDS011;53057;50.988;6.314;2023-03-12T08:17:49;9.87;;;7.43;;
3949;SDS011;53057;50.988;6.314;2023-03-12T08:20:16;11.23;;;7.67;;
3949;SDS011;53057;50.988;6.314;2023-03-12T08:22:43;11.30;;;5.80;;
3949;SDS011;53057;50.988;6.314;2023-03-12T08:25:10;16.23;;;10.07;;
3949;SDS011;53057;50.988;6.314;2023-03-12T08:27:37;14.53;;;8.53;;
3949;SDS011;53057;50.988;6.314;2023-03-12T08:30:04;14.93;;;11.13;;
3949;SDS011;53057;50.988;6.314;2023-03-12T08:32:32;14.30;;;9.33;;
3949;SDS011;53057;50.988;6.314;2023-03-12T08:34:58;9.73;;;4.87;;
3949;SDS011;53057;50.988;6.314;2023-03-12T08:37:25;11.27;;;7.80;;
3949;SDS011;53057;50.988;6.314;2023-03-12T08:39:52;15.23;;;8.40;;
3949;SDS011;53057;50.988;6.314;2023-03-12T08:42:19;14.97;;;8.80;;
3949;SDS011;53057;50.988;6.314;2023-03-12T08:44:45;13.10;;;8.40;;
3949;SDS011;53057;50.988;6.314;2023-03-12T08:47:13;13.30;;;8.07;;
3949;SDS011;53057;50.988;6.314;2023-03-12T08:49:40;4.90;;;3.87;;
3949;SDS011;53057;50.988;6.314;2023-03-12T08:52:07;12.27;;;8.73;;
3949;SDS011;53057;50.988;6.314;2023-03-12T08:54:34;18.33;;;9.80;;
3949;SDS011;53057;50.988;6.314;2023-03-12T08:57:00;12.10;;;8.23;;
3949;SDS011;53057;50.988;6.314;2023-03-12T08:59:27;12.93;;;9.00;;
3949;SDS011;53057;50.988;6.314;2023-03-12T09:01:54;19.10;;;10.57;;
3949;SDS011;53057;50.988;6.314;2023-03-12T09:04:21;11.80;;;8.23;;
3949;SDS011;53057;50.988;6.314;2023-03-12T09:06:47;17.23;;;8.80;;
3949;SDS011;53057;50.988;6.314;2023-03-12T09:09:14;12.47;;;7.57;;
3949;SDS011;53057;50.988;6.314;2023-03-12T09:11:41;11.57;;;7.90;;
3949;SDS011;53057;50.988;6.314;2023-03-12T09:14:08;11.60;;;7.80;;
3949;SDS011;53057;50.988;6.314;2023-03-12T09:16:54;19.53;;;7.33;;
3949;SDS011;53057;50.988;6.314;2023-03-12T09:19:22;14.10;;;7.63;;
3949;SDS011;53057;50.988;6.314;2023-03-12T09:21:49;7.53;;;6.77;;
3949;SDS011;53057;50.988;6.314;2023-03-12T09:24:15;11.43;;;7.37;;
3949;SDS011;53057;50.988;6.314;2023-03-12T09:26:42;11.97;;;8.17;;
3949;SDS011;53057;50.988;6.314;2023-03-12T09:29:09;17.63;;;8.47;;
3949;SDS011;53057;50.988;6.314;2023-03-12T09:31:35;22.60;;;8.90;;
3949;SDS011;53057;50.988;6.314;2023-03-12T09:34:02;13.03;;;9.10;;
3949;SDS011;53057;50.988;6.314;2023-03-12T09:36:30;14.37;;;10.43;;
3949;SDS011;53057;50.988;6.314;2023-03-12T09:38:57;23.17;;;10.27;;
3949;SDS011;53057;50.988;6.314;2023-03-12T09:41:25;11.57;;;8.33;;
3949;SDS011;53057;50.988;6.314;2023-03-12T09:43:56;23.20;;;10.57;;
3949;SDS011;53057;50.988;6.314;2023-03-12T09:46:25;15.20;;;10.40;;
3949;SDS011;53057;50.988;6.314;2023-03-12T09:48:55;12.37;;;8.37;;
3949;SDS011;53057;50.988;6.314;2023-03-12T09:51:24;17.43;;;10.13;;
3949;SDS011;53057;50.988;6.314;2023-03-12T09:53:53;23.57;;;12.67;;
3949;SDS011;53057;50.988;6.314;2023-03-12T09:56:21;30.20;;;11.30;;
3949;SDS011;53057;50.988;6.314;2023-03-12T09:58:49;16.93;;;9.20;;
3949;SDS011;53057;50.988;6.314;2023-03-12T10:01:20;21.70;;;11.07;;
3949;SDS011;53057;50.988;6.314;2023-03-12T10:06:23;25.03;;;11.90;;
3949;SDS011;53057;50.988;6.314;2023-03-12T10:13:52;21.60;;;11.90;;
3949;SDS011;53057;50.988;6.314;2023-03-12T10:21:55;13.67;;;8.53;;
3949;SDS011;53057;50.988;6.314;2023-03-12T10:24:29;30.97;;;9.73;;
3949;SDS011;53057;50.988;6.314;2023-03-12T10:26:59;21.83;;;13.37;;
3949;SDS011;53057;50.988;6.314;2023-03-12T10:29:28;28.07;;;15.50;;
3949;SDS011;53057;50.988;6.314;2023-03-12T10:31:57;33.00;;;14.00;;
3949;SDS011;53057;50.988;6.314;2023-03-12T10:37:16;37.97;;;14.13;;
3949;SDS011;53057;50.988;6.314;2023-03-12T10:39:44;49.47;;;15.27;;
3949;SDS011;53057;50.988;6.314;2023-03-12T10:42:12;28.10;;;12.30;;
3949;SDS011;53057;50.988;6.314;2023-03-12T10:44:39;36.77;;;14.77;;
3949;SDS011;53057;50.988;6.314;2023-03-12T10:47:17;41.80;;;17.83;;
3949;SDS011;53057;50.988;6.314;2023-03-12T10:49:48;56.73;;;15.50;;
3949;SDS011;53057;50.988;6.314;2023-03-12T10:52:17;38.10;;;16.20;;
3949;SDS011;53057;50.988;6.314;2023-03-12T10:54:45;59.87;;;19.27;;
3949;SDS011;53057;50.988;6.314;2023-03-12T10:57:12;34.53;;;17.90;;
3949;SDS011;53057;50.988;6.314;2023-03-12T10:59:42;53.97;;;16.00;;
3949;SDS011;53057;50.988;6.314;2023-03-12T11:02:29;54.77;;;17.10;;
3949;SDS011;53057;50.988;6.314;2023-03-12T11:04:56;42.40;;;19.03;;
3949;SDS011;53057;50.988;6.314;2023-03-12T11:12:35;49.93;;;15.97;;
3949;SDS011;53057;50.988;6.314;2023-03-12T11:15:18;46.33;;;15.20;;
3949;SDS011;53057;50.988;6.314;2023-03-12T11:17:46;62.00;;;20.90;;
3949;SDS011;53057;50.988;6.314;2023-03-12T11:22:51;40.60;;;17.97;;
3949;SDS011;53057;50.988;6.314;2023-03-12T11:25:22;34.33;;;15.57;;
3949;SDS011;53057;50.988;6.314;2023-03-12T11:27:52;55.80;;;16.30;;
3949;SDS011;53057;50.988;6.314;2023-03-12T11:30:23;27.13;;;12.40;;
3949;SDS011;53057;50.988;6.314;2023-03-12T11:32:51;39.83;;;12.23;;
3949;SDS011;53057;50.988;6.314;2023-03-12T11:35:20;37.57;;;14.20;;
3949;SDS011;53057;50.988;6.314;2023-03-12T11:50:44;49.90;;;12.00;;
3949;SDS011;53057;50.988;6.314;2023-03-12T11:53:16;38.03;;;9.47;;
3949;SDS011;53057;50.988;6.314;2023-03-12T11:55:55;28.30;;;9.97;;
3949;SDS011;53057;50.988;6.314;2023-03-12T12:01:16;27.00;;;7.40;;
3949;SDS011;53057;50.988;6.314;2023-03-12T12:09:17;28.83;;;7.83;;
3949;SDS011;53057;50.988;6.314;2023-03-12T12:28:03;36.63;;;9.30;;
3949;SDS011;53057;50.988;6.314;2023-03-12T12:35:34;33.63;;;7.33;;
3949;SDS011;53057;50.988;6.314;2023-03-12T12:40:46;24.00;;;6.73;;
3949;SDS011;53057;50.988;6.314;2023-03-12T12:45:41;29.13;;;7.73;;
3949;SDS011;53057;50.988;6.314;2023-03-12T12:48:16;21.33;;;5.27;;
3949;SDS011;53057;50.988;6.314;2023-03-12T12:50:43;38.40;;;7.73;;
3949;SDS011;53057;50.988;6.314;2023-03-12T12:53:14;26.57;;;6.77;;
3949;SDS011;53057;50.988;6.314;2023-03-12T12:55:47;23.20;;;6.73;;
3949;SDS011;53057;50.988;6.314;2023-03-12T13:00:44;35.67;;;7.30;;
3949;SDS011;53057;50.988;6.314;2023-03-12T13:03:16;33.83;;;7.23;;
3949;SDS011;53057;50.988;6.314;2023-03-12T13:08:33;35.73;;;7.43;;
3949;SDS011;53057;50.988;6.314;2023-03-12T13:11:44;25.13;;;6.17;;
3949;SDS011;53057;50.988;6.314;2023-03-12T13:14:11;41.37;;;8.53;;
3949;SDS011;53057;50.988;6.314;2023-03-12T13:16:38;45.60;;;8.53;;
3949;SDS011;53057;50.988;6.314;2023-03-12T13:24:25;31.43;;;7.40;;
3949;SDS011;53057;50.988;6.314;2023-03-12T13:31:54;45.27;;;6.43;;
3949;SDS011;53057;50.988;6.314;2023-03-12T13:36:57;34.37;;;8.53;;
3949;SDS011;53057;50.988;6.314;2023-03-12T13:39:28;40.83;;;7.90;;
3949;SDS011;53057;50.988;6.314;2023-03-12T13:41:56;32.60;;;7.40;;
3949;SDS011;53057;50.988;6.314;2023-03-12T13:44:28;17.67;;;5.43;;
3949;SDS011;53057;50.988;6.314;2023-03-12T13:49:25;52.83;;;18.77;;
3949;SDS011;53057;50.988;6.314;2023-03-12T13:52:21;27.63;;;5.50;;
3949;SDS011;53057;50.988;6.314;2023-03-12T13:57:40;28.53;;;8.13;;
3949;SDS011;53057;50.988;6.314;2023-03-12T14:00:25;23.90;;;4.90;;
3949;SDS011;53057;50.988;6.314;2023-03-12T14:02:57;23.77;;;6.07;;
3949;SDS011;53057;50.988;6.314;2023-03-12T14:05:24;26.03;;;5.70;;
3949;SDS011;53057;50.988;6.314;2023-03-12T14:08:08;31.97;;;6.47;;
3949;SDS011;53057;50.988;6.314;2023-03-12T14:10:48;34.90;;;6.60;;
3949;SDS011;53057;50.988;6.314;2023-03-12T14:18:34;29.43;;;9.33;;
3949;SDS011;53057;50.988;6.314;2023-03-12T14:21:06;31.40;;;12.27;;
3949;SDS011;53057;50.988;6.314;2023-03-12T14:23:34;38.97;;;12.47;;
3949;SDS011;53057;50.988;6.314;2023-03-12T14:26:02;32.17;;;6.53;;
3949;SDS011;53057;50.988;6.314;2023-03-12T14:28:29;40.10;;;6.53;;
3949;SDS011;53057;50.988;6.314;2023-03-12T14:31:02;29.13;;;7.07;;
3949;SDS011;53057;50.988;6.314;2023-03-12T14:33:32;27.97;;;5.87;;
3949;SDS011;53057;50.988;6.314;2023-03-12T14:36:06;16.47;;;5.60;;
3949;SDS011;53057;50.988;6.314;2023-03-12T14:38:36;27.30;;;8.90;;
3949;SDS011;53057;50.988;6.314;2023-03-12T14:41:20;34.17;;;5.97;;
3949;SDS011;53057;50.988;6.314;2023-03-12T14:43:50;34.90;;;6.13;;
3949;SDS011;53057;50.988;6.314;2023-03-12T14:46:17;29.27;;;6.70;;
3949;SDS011;53057;50.988;6.314;2023-03-12T14:48:49;38.97;;;6.00;;
3949;SDS011;53057;50.988;6.314;2023-03-12T14:53:49;33.93;;;5.73;;
3949;SDS011;53057;50.988;6.314;2023-03-12T14:56:23;31.30;;;5.63;;
3949;SDS011;53057;50.988;6.314;2023-03-12T14:58:51;25.77;;;7.70;;
3949;SDS011;53057;50.988;6.314;2023-03-12T15:01:19;29.80;;;5.80;;
3949;SDS011;53057;50.988;6.314;2023-03-12T15:03:47;47.93;;;10.33;;
3949;SDS011;53057;50.988;6.314;2023-03-12T15:06:20;34.37;;;6.87;;
3949;SDS011;53057;50.988;6.314;2023-03-12T15:08:50;44.37;;;7.80;;
3949;SDS011;53057;50.988;6.314;2023-03-12T15:11:20;20.87;;;4.73;;
3949;SDS011;53057;50.988;6.314;2023-03-12T15:13:48;23.10;;;5.70;;
3949;SDS011;53057;50.988;6.314;2023-03-12T15:16:15;38.73;;;7.17;;
3949;SDS011;53057;50.988;6.314;2023-03-12T15:18:42;26.40;;;7.63;;
3949;SDS011;53057;50.988;6.314;2023-03-12T15:21:09;30.50;;;6.13;;
3949;SDS011;53057;50.988;6.314;2023-03-12T15:23:36;35.27;;;7.37;;
3949;SDS011;53057;50.988;6.314;2023-03-12T15:28:58;27.97;;;5.73;;
3949;SDS011;53057;50.988;6.314;2023-03-12T15:31:26;27.87;;;7.47;;
3949;SDS011;53057;50.988;6.314;2023-03-12T15:34:00;30.50;;;6.63;;
3949;SDS011;53057;50.988;6.314;2023-03-12T15:36:28;24.93;;;6.53;;
3949;SDS011;53057;50.988;6.314;2023-03-12T15:44:20;37.63;;;7.43;;
3949;SDS011;53057;50.988;6.314;2023-03-12T15:46:53;28.03;;;7.23;;
3949;SDS011;53057;50.988;6.314;2023-03-12T15:49:26;39.63;;;8.97;;
3949;SDS011;53057;50.988;6.314;2023-03-12T15:51:57;26.10;;;5.57;;
3949;SDS011;53057;50.988;6.314;2023-03-12T15:54:25;30.00;;;6.70;;
3949;SDS011;53057;50.988;6.314;2023-03-12T15:56:52;32.00;;;7.77;;
3949;SDS011;53057;50.988;6.314;2023-03-12T15:59:24;28.33;;;9.53;;
3949;SDS011;53057;50.988;6.314;2023-03-12T16:01:52;34.03;;;7.23;;
3949;SDS011;53057;50.988;6.314;2023-03-12T16:04:19;30.97;;;6.80;;
3949;SDS011;53057;50.988;6.314;2023-03-12T16:06:46;42.70;;;7.10;;
3949;SDS011;53057;50.988;6.314;2023-03-12T16:09:18;25.80;;;5.97;;
3949;SDS011;53057;50.988;6.314;2023-03-12T16:11:45;28.40;;;5.73;;
3949;SDS011;53057;50.988;6.314;2023-03-12T16:14:18;24.07;;;5.30;;
3949;SDS011;53057;50.988;6.314;2023-03-12T16:16:46;27.53;;;7.70;;
3949;SDS011;53057;50.988;6.314;2023-03-12T16:19:14;33.23;;;6.83;;
3949;SDS011;53057;50.988;6.314;2023-03-12T16:21:41;44.83;;;9.57;;
3949;SDS011;53057;50.988;6.314;2023-03-12T16:24:09;35.97;;;9.90;;
3949;SDS011;53057;50.988;6.314;2023-03-12T16:26:37;25.63;;;5.50;;
3949;SDS011;53057;50.988;6.314;2023-03-12T16:29:08;26.23;;;6.23;;
3949;SDS011;53057;50.988;6.314;2023-03-12T16:31:35;31.83;;;6.63;;
3949;SDS011;53057;50.988;6.314;2023-03-12T16:34:02;39.73;;;9.50;;
3949;SDS011;53057;50.988;6.314;2023-03-12T16:36:29;27.50;;;6.90;;
3949;SDS011;53057;50.988;6.314;2023-03-12T16:38:55;35.50;;;7.93;;
3949;SDS011;53057;50.988;6.314;2023-03-12T16:41:22;32.77;;;7.27;;
3949;SDS011;53057;50.988;6.314;2023-03-12T16:43:50;30.27;;;6.07;;
3949;SDS011;53057;50.988;6.314;2023-03-12T16:46:19;33.77;;;7.57;;
3949;SDS011;53057;50.988;6.314;2023-03-12T16:48:50;26.47;;;8.57;;